Time;durP1;ratioP1;P1;durP2;ratioP2;P2;SDS_P1;SDS_P2;PMS_P1;PMS_P2;Temp;Humidity;BMP_temperature;BMP_pressure;BME280_temperature;BME280_humidity;BME280_pressure;Samples;Min_cycle;Max_cycle;Signal;HPM_P1;HPM_P2
2022/05/24 00:01:49;;;;;;;;;;;15.40;99.90;;;;;;10449274;28;84163;-48
2022/05/24 00:06:50;;;;;;;;;;;15.30;99.90;;;;;;10446043;28;84969;-50
2022/05/24 00:11:50;;;;;;;;;;;15.30;99.90;;;;;;10435371;28;84242;-53
2022/05/24 00:16:51;;;;;;;;;;;15.30;99.90;;;;;;10448512;27;84319;-51
2022/05/24 00:21:52;;;;;;;;;;;15.30;99.90;;;;;;10455465;28;84227;-49
2022/05/24 00:26:52;;;;;;;;;;;15.30;99.90;;;;;;10455184;27;84248;-48
2022/05/24 00:31:53;;;;;;;;;;;15.30;99.90;;;;;;10419842;28;85996;-52
2022/05/24 00:36:53;;;;;;;;;;;15.20;99.90;;;;;;10454786;27;84152;-49
2022/05/24 00:42:01;;;;;;;;;;;15.30;99.90;;;;;;10454465;28;85093;-50
2022/05/24 00:47:25;;;;;;;;;;;15.30;99.90;;;;;;10420805;27;84151;-53
2022/05/24 00:52:28;;;;;;;;;;;15.30;99.90;;;;;;10448396;28;84310;-52
2022/05/24 00:57:31;;;;;;;;;;;15.30;99.90;;;;;;10455615;28;84343;-51
2022/05/24 01:02:32;;;;;;;;;;;15.30;99.90;;;;;;10455853;28;84735;-49
2022/05/24 01:07:34;;;;;;;;;;;15.30;99.90;;;;;;10435505;27;85207;-51
2022/05/24 01:12:39;;;;;;;;;;;15.20;99.90;;;;;;10456386;28;84918;-49
2022/05/24 01:17:41;;;;;;;;;;;15.10;99.90;;;;;;10450342;27;84195;-55
2022/05/24 01:22:41;;;;;;;;;;;15.00;99.90;;;;;;10454911;28;84209;-56
2022/05/24 01:27:42;;;;;;;;;;;15.00;99.90;;;;;;10435472;27;84307;-52
2022/05/24 01:38:03;;;;;;;;;;;15.00;99.90;;;;;;10455213;28;85015;-52
2022/05/24 01:43:03;;;;;;;;;;;15.00;99.90;;;;;;10454919;28;84378;-52
2022/05/24 01:48:08;;;;;;;;;;;14.90;99.90;;;;;;10453785;27;84244;-49
2022/05/24 01:53:12;;;;;;;;;;;14.80;99.90;;;;;;10452950;28;84256;-52
2022/05/24 01:58:14;;;;;;;;;;;14.80;99.90;;;;;;10453956;27;86022;-52
2022/05/24 02:03:14;;;;;;;;;;;14.80;99.90;;;;;;10448244;28;84082;-49
2022/05/24 02:08:15;;;;;;;;;;;14.70;99.90;;;;;;10450763;27;84847;-52
2022/05/24 02:13:20;;;;;;;;;;;14.80;99.90;;;;;;10453093;28;85341;-53
2022/05/24 02:18:21;;;;;;;;;;;14.80;99.90;;;;;;10451758;28;84263;-48
2022/05/24 02:23:22;;;;;;;;;;;14.80;99.90;;;;;;10451680;28;84892;-53
2022/05/24 02:28:29;;;;;;;;;;;14.80;99.90;;;;;;10452115;27;84041;-51
2022/05/24 02:33:29;;;;;;;;;;;14.80;99.90;;;;;;10451183;28;84192;-50
2022/05/24 02:38:30;;;;;;;;;;;14.80;99.90;;;;;;10450333;28;84820;-48
2022/05/24 02:43:31;;;;;;;;;;;14.80;99.90;;;;;;10431377;28;85242;-52
2022/05/24 02:48:32;;;;;;;;;;;14.90;99.90;;;;;;10449897;28;84081;-49
2022/05/24 02:53:32;;;;;;;;;;;14.90;99.90;;;;;;10446466;28;84992;-50
2022/05/24 02:58:33;;;;;;;;;;;14.80;99.90;;;;;;10451313;27;84937;-49
2022/05/24 03:03:35;;;;;;;;;;;14.90;99.90;;;;;;10450349;28;84787;-53
2022/05/24 03:14:14;;;;;;;;;;;14.90;99.90;;;;;;10451089;28;84225;-49
2022/05/24 03:19:15;;;;;;;;;;;14.90;99.90;;;;;;10439836;28;84397;-53
2022/05/24 03:24:16;;;;;;;;;;;14.90;99.90;;;;;;10450169;28;84195;-51
2022/05/24 03:29:16;;;;;;;;;;;14.90;99.90;;;;;;10444089;28;84902;-52
2022/05/24 03:34:17;;;;;;;;;;;14.90;99.90;;;;;;10449627;28;84402;-49
2022/05/24 03:39:17;;;;;;;;;;;14.90;99.90;;;;;;10431468;28;86956;-54
2022/05/24 03:44:18;;;;;;;;;;;14.90;99.90;;;;;;10450111;28;84952;-54
2022/05/24 03:49:19;;;;;;;;;;;14.90;99.90;;;;;;10431356;27;84164;-51
2022/05/24 03:54:19;;;;;;;;;;;14.80;99.90;;;;;;10456736;28;84866;-52
2022/05/24 03:59:20;;;;;;;;;;;14.90;99.90;;;;;;10457350;27;85094;-50
2022/05/24 04:04:20;;;;;;;;;;;14.90;99.90;;;;;;10456740;28;84288;-50
2022/05/24 04:09:21;;;;;;;;;;;15.00;99.90;;;;;;10455788;27;84483;-50
2022/05/24 04:14:21;;;;;;;;;;;15.00;99.90;;;;;;10457742;28;84084;-56
2022/05/24 04:19:22;;;;;;;;;;;15.10;99.90;;;;;;10453181;27;84878;-51
2022/05/24 04:24:22;;;;;;;;;;;15.20;99.90;;;;;;10453131;28;84308;-51
2022/05/24 04:29:23;;;;;;;;;;;15.10;99.90;;;;;;10432819;28;85939;-50
2022/05/24 04:34:24;;;;;;;;;;;15.20;99.90;;;;;;10438920;28;85414;-48
2022/05/24 04:39:25;;;;;;;;;;;15.30;99.90;;;;;;10455372;27;84128;-53
2022/05/24 04:44:26;;;;;;;;;;;15.20;99.90;;;;;;10453395;28;84915;-52
2022/05/24 04:49:27;;;;;;;;;;;15.20;99.90;;;;;;10436818;28;85655;-52
2022/05/24 04:54:28;;;;;;;;;;;15.10;99.90;;;;;;10420220;28;84302;-48
2022/05/24 04:59:28;;;;;;;;;;;15.20;99.90;;;;;;10454785;28;84920;-50
2022/05/24 05:04:29;;;;;;;;;;;15.30;99.90;;;;;;10452845;28;85079;-48
2022/05/24 05:09:34;;;;;;;;;;;15.20;99.90;;;;;;10434698;28;86572;-51
2022/05/24 05:14:36;;;;;;;;;;;15.10;99.90;;;;;;10450926;28;84286;-50
2022/05/24 05:19:43;;;;;;;;;;;15.10;99.90;;;;;;10451209;27;84819;-47
2022/05/24 05:24:44;;;;;;;;;;;15.00;99.90;;;;;;10452614;28;84963;-53
2022/05/24 05:35:05;;;;;;;;;;;15.20;99.90;;;;;;10451846;28;84850;-48
2022/05/24 05:40:06;;;;;;;;;;;15.40;1.00;;;;;;10448494;27;84963;-50
2022/05/24 05:45:10;;;;;;;;;;;15.40;1.00;;;;;;10451020;27;84331;-51
2022/05/24 05:50:11;;;;;;;;;;;15.40;1.00;;;;;;10431287;28;85925;-47
2022/05/24 05:55:12;;;;;;;;;;;15.30;1.00;;;;;;10432655;27;84259;-52
2022/05/24 06:00:13;;;;;;;;;;;15.10;1.00;;;;;;10450058;28;84888;-49
2022/05/24 06:05:23;;;;;;;;;;;15.10;1.00;;;;;;10447736;27;84509;-48
2022/05/24 06:10:24;;;;;;;;;;;15.00;1.00;;;;;;10452107;28;84032;-56
2022/05/24 06:15:27;;;;;;;;;;;14.90;1.00;;;;;;10447917;27;84270;-48
2022/05/24 06:20:29;;;;;;;;;;;14.80;1.00;;;;;;10451348;28;84782;-53
2022/05/24 06:25:30;;;;;;;;;;;14.80;1.00;;;;;;10431379;27;85137;-49
2022/05/24 06:30:31;;;;;;;;;;;14.80;1.00;;;;;;10447368;28;84944;-54
2022/05/24 06:35:31;;;;;;;;;;;14.90;1.00;;;;;;10431631;28;86975;-48
2022/05/24 06:40:32;;;;;;;;;;;14.80;7.50;;;;;;10451183;28;84265;-49
2022/05/24 06:45:34;;;;;;;;;;;14.80;21.60;;;;;;10433764;27;86700;-51
2022/05/24 06:50:34;;;;;;;;;;;14.70;42.10;;;;;;10452091;27;84175;-53
2022/05/24 06:55:37;;;;;;;;;;;14.80;94.20;;;;;;10434550;28;84496;-51
2022/05/24 07:05:56;;;;;;;;;;;14.90;99.90;;;;;;10467501;27;84038;-56
2022/05/24 07:10:57;;;;;;;;;;;14.80;99.90;;;;;;10452453;28;84329;-54
2022/05/24 07:15:57;;;;;;;;;;;14.80;99.90;;;;;;10453247;27;84091;-55
2022/05/24 07:20:58;;;;;;;;;;;14.70;99.90;;;;;;10452506;28;84104;-56
2022/05/24 07:26:12;;;;;;;;;;;14.50;99.90;;;;;;10453389;27;84402;-60
2022/05/24 07:31:13;;;;;;;;;;;14.30;99.90;;;;;;10441089;28;87134;-58
2022/05/24 07:36:14;;;;;;;;;;;14.10;99.90;;;;;;10440272;27;86896;-55
2022/05/24 07:46:34;;;;;;;;;;;13.90;99.90;;;;;;10457777;27;84191;-63
2022/05/24 07:51:34;;;;;;;;;;;13.90;99.90;;;;;;10456859;28;84558;-56
2022/05/24 07:56:35;;;;;;;;;;;14.00;99.90;;;;;;10455404;27;85176;-54
2022/05/24 08:01:36;;;;;;;;;;;14.20;99.90;;;;;;10438414;28;86988;-56
2022/05/24 08:06:37;;;;;;;;;;;14.20;99.90;;;;;;10461193;27;84976;-55
2022/05/24 08:11:37;;;;;;;;;;;14.40;99.90;;;;;;10461596;27;84171;-54
2022/05/24 08:16:38;;;;;;;;;;;14.40;99.90;;;;;;10457158;27;85053;-53
2022/05/24 08:21:38;;;;;;;;;;;14.20;99.90;;;;;;10456003;28;84134;-51
2022/05/24 08:26:39;;;;;;;;;;;14.40;99.90;;;;;;10437178;28;84327;-49
2022/05/24 08:31:39;;;;;;;;;;;14.30;99.90;;;;;;10455803;28;84756;-50
2022/05/24 08:36:40;;;;;;;;;;;14.40;99.90;;;;;;10450172;27;84260;-50
2022/05/24 08:41:59;;;;;;;;;;;14.70;99.90;;;;;;10455812;28;84886;-54
2022/05/24 08:52:45;;;;;;;;;;;15.20;1.00;;;;;;10354886;28;85291;-51
2022/05/24 08:57:51;;;;;;;;;;;15.90;1.00;;;;;;10454298;27;85611;-53
2022/05/24 09:02:52;;;;;;;;;;;17.10;1.00;;;;;;10454831;28;84680;-51
2022/05/24 09:07:55;;;;;;;;;;;17.70;1.00;;;;;;10444424;28;84958;-52
2022/05/24 09:13:14;;;;;;;;;;;18.30;1.00;;;;;;10451044;28;84784;-51
2022/05/24 09:18:40;;;;;;;;;;;18.00;1.00;;;;;;10448659;27;85084;-54
2022/05/24 09:23:51;;;;;;;;;;;18.80;69.50;;;;;;10454710;28;84190;-52
2022/05/24 09:28:56;;;;;;;;;;;19.20;1.00;;;;;;10452729;28;86024;-55
2022/05/24 09:33:58;;;;;;;;;;;18.50;1.00;;;;;;10452001;28;85805;-53
2022/05/24 09:39:00;;;;;;;;;;;18.80;1.00;;;;;;10433221;28;84968;-50
2022/05/24 09:44:02;;;;;;;;;;;18.60;1.00;;;;;;10451246;28;86225;-58
2022/05/24 09:49:20;;;;;;;;;;;18.10;1.00;;;;;;10450843;28;86152;-54
2022/05/24 09:54:22;;;;;;;;;;;17.60;99.90;;;;;;10427829;28;85208;-57
2022/05/24 09:59:26;;;;;;;;;;;17.50;99.90;;;;;;10451343;27;84713;-52
2022/05/24 10:04:29;;;;;;;;;;;17.40;99.90;;;;;;10451776;28;84924;-52
2022/05/24 10:09:33;;;;;;;;;;;17.20;85.30;;;;;;10433672;28;84978;-50
2022/05/24 10:14:43;;;;;;;;;;;17.40;99.90;;;;;;10452709;28;85029;-49
2022/05/24 10:19:58;;;;;;;;;;;19.60;99.90;;;;;;10448689;28;84715;-59
2022/05/24 10:25:17;;;;;;;;;;;21.50;1.00;;;;;;10452136;28;84925;-54
2022/05/24 10:30:21;;;;;;;;;;;22.70;99.90;;;;;;10445099;28;84234;-56
2022/05/24 10:41:04;;;;;;;;;;;19.50;1.00;;;;;;10446950;28;84730;-53
2022/05/24 10:46:10;;;;;;;;;;;18.90;99.90;;;;;;10435623;27;105814;-53
2022/05/24 10:51:15;;;;;;;;;;;18.70;1.00;;;;;;10450880;28;85141;-50
2022/05/24 10:56:37;;;;;;;;;;;18.30;99.90;;;;;;10450656;28;84288;-54
2022/05/24 11:01:41;;;;;;;;;;;18.10;99.90;;;;;;10433543;27;85998;-50
2022/05/24 11:06:45;;;;;;;;;;;18.10;99.90;;;;;;10478338;22;85049;-52
2022/05/24 11:11:45;;;;;;;;;;;19.90;1.00;;;;;;10540801;27;84128;-51
2022/05/24 11:16:47;;;;;;;;;;;20.80;1.00;;;;;;10539618;27;84958;-49
2022/05/24 11:21:57;;;;;;;;;;;20.70;1.00;;;;;;10540315;27;84949;-53
2022/05/24 11:27:00;;;;;;;;;;;20.50;70.00;;;;;;10540829;27;84966;-54
2022/05/24 11:32:02;;;;;;;;;;;20.70;1.00;;;;;;10540054;27;85072;-49
2022/05/24 11:37:21;;;;;;;;;;;21.70;1.00;;;;;;10539105;27;84985;-51
2022/05/24 11:42:24;;;;;;;;;;;21.10;1.00;;;;;;10539942;27;84805;-52
2022/05/24 11:47:33;;;;;;;;;;;21.60;99.90;;;;;;10539378;27;85229;-50
2022/05/24 11:52:53;;;;;;;;;;;23.50;1.00;;;;;;10538836;27;86393;-52
2022/05/24 11:57:53;;;;;;;;;;;23.30;14.00;;;;;;10539904;27;84872;-52
2022/05/24 12:08:23;;;;;;;;;;;22.30;1.00;;;;;;10538860;27;84406;-48
2022/05/24 12:13:29;;;;;;;;;;;21.10;1.00;;;;;;10542689;27;84823;-49
2022/05/24 12:18:44;;;;;;;;;;;21.60;99.90;;;;;;10547060;27;84170;-49
2022/05/24 12:23:44;;;;;;;;;;;22.10;1.00;;;;;;10544568;27;84223;-52
2022/05/24 12:28:52;;;;;;;;;;;21.50;99.90;;;;;;10547592;27;84414;-53
2022/05/24 12:33:53;;;;;;;;;;;20.70;52.10;;;;;;10544747;27;84993;-50
2022/05/24 12:39:09;;;;;;;;;;;21.10;99.90;;;;;;10546482;27;84151;-54
2022/05/24 12:44:26;;;;;;;;;;;21.40;2.70;;;;;;10546560;27;84070;-52
2022/05/24 12:49:28;;;;;;;;;;;22.30;1.00;;;;;;10546487;27;84894;-48
2022/05/24 12:54:31;;;;;;;;;;;23.80;99.90;;;;;;10544273;27;83997;-53
2022/05/24 12:59:34;;;;;;;;;;;24.40;1.00;;;;;;10543231;27;85562;-57
2022/05/24 13:04:36;;;;;;;;;;;23.60;1.00;;;;;;10545545;27;84918;-53
2022/05/24 13:09:51;;;;;;;;;;;22.30;1.00;;;;;;10543689;27;84077;-48
2022/05/24 13:14:56;;;;;;;;;;;23.00;99.90;;;;;;10544565;27;84967;-49
2022/05/24 13:19:56;;;;;;;;;;;24.30;1.00;;;;;;10541422;27;84993;-50
2022/05/24 13:24:58;;;;;;;;;;;24.00;1.00;;;;;;10542081;27;85063;-50
2022/05/24 13:35:19;;;;;;;;;;;21.70;99.90;;;;;;10542608;27;84112;-48
2022/05/24 13:40:33;;;;;;;;;;;20.80;1.00;;;;;;10540788;27;84982;-49
2022/05/24 13:45:34;;;;;;;;;;;19.90;99.90;;;;;;10540828;27;84101;-50
2022/05/24 13:50:37;;;;;;;;;;;19.10;99.90;;;;;;10540497;27;84926;-50
2022/05/24 13:55:39;;;;;;;;;;;19.50;1.00;;;;;;10540553;27;84155;-52
2022/05/24 14:01:03;;;;;;;;;;;19.80;1.00;;;;;;10541557;27;84157;-49
2022/05/24 14:06:06;;;;;;;;;;;20.10;1.00;;;;;;10521177;27;86173;-53
2022/05/24 14:11:09;;;;;;;;;;;20.30;1.00;;;;;;10540829;27;84893;-50
2022/05/24 14:16:10;;;;;;;;;;;19.90;1.00;;;;;;10542101;27;84448;-50
2022/05/24 14:21:11;;;;;;;;;;;19.50;99.90;;;;;;10541551;27;84119;-50
2022/05/24 14:26:11;;;;;;;;;;;19.40;99.90;;;;;;10540393;27;84058;-50
2022/05/24 14:31:13;;;;;;;;;;;19.00;1.00;;;;;;10540025;27;85319;-49
2022/05/24 14:36:14;;;;;;;;;;;18.80;99.90;;;;;;10539738;27;84091;-53
2022/05/24 14:41:20;;;;;;;;;;;18.20;1.00;;;;;;10541268;27;84183;-53
2022/05/24 14:46:20;;;;;;;;;;;17.50;1.00;;;;;;10539419;27;86927;-48
2022/05/24 14:51:26;;;;;;;;;;;16.80;1.00;;;;;;10541691;27;84073;-50
2022/05/24 14:56:27;;;;;;;;;;;16.20;1.00;;;;;;10542920;27;84905;-50
2022/05/24 15:01:27;;;;;;;;;;;15.70;59.10;;;;;;10542734;27;84275;-50
2022/05/24 15:06:28;;;;;;;;;;;15.60;1.00;;;;;;10541420;27;84087;-53
2022/05/24 15:16:49;;;;;;;;;;;15.40;1.00;;;;;;10540752;27;84841;-51
2022/05/24 15:21:50;;;;;;;;;;;15.40;1.00;;;;;;10541171;27;84013;-51
2022/05/24 15:26:52;;;;;;;;;;;15.40;1.00;;;;;;10543262;27;84016;-49
2022/05/24 15:31:53;;;;;;;;;;;15.00;18.70;;;;;;10541506;27;86237;-47
2022/05/24 15:36:53;;;;;;;;;;;14.80;99.90;;;;;;10541206;27;85280;-49
2022/05/24 15:41:55;;;;;;;;;;;14.60;99.90;;;;;;10541027;27;85250;-50
2022/05/24 15:46:56;;;;;;;;;;;14.90;99.90;;;;;;10540037;27;84634;-57
2022/05/24 15:51:56;;;;;;;;;;;15.10;99.90;;;;;;10547617;27;84758;-53
2022/05/24 15:56:57;;;;;;;;;;;15.30;1.00;;;;;;10537864;27;84206;-52
2022/05/24 16:01:57;;;;;;;;;;;15.50;1.00;;;;;;10520680;27;84507;-59
2022/05/24 16:12:17;;;;;;;;;;;15.50;1.00;;;;;;10500501;27;84649;-53
2022/05/24 16:17:18;;;;;;;;;;;15.50;1.00;;;;;;10521456;27;84842;-50
2022/05/24 16:22:18;;;;;;;;;;;15.50;1.00;;;;;;10524380;27;85683;-52
2022/05/24 16:27:19;;;;;;;;;;;15.60;1.00;;;;;;10500221;27;84075;-52
2022/05/24 16:32:20;;;;;;;;;;;15.70;1.00;;;;;;10497163;27;85116;-53
2022/05/24 16:37:20;;;;;;;;;;;15.90;1.00;;;;;;10500361;27;85019;-54
2022/05/24 16:42:21;;;;;;;;;;;16.10;1.00;;;;;;10498869;27;87006;-54
2022/05/24 16:47:21;;;;;;;;;;;16.10;1.00;;;;;;10500134;27;84246;-53
2022/05/24 16:52:22;;;;;;;;;;;16.30;1.00;;;;;;10523984;27;84364;-54
2022/05/24 17:02:47;;;;;;;;;;;16.60;1.00;;;;;;10539511;27;85165;-52
2022/05/24 17:07:48;;;;;;;;;;;16.60;1.00;;;;;;10537984;22;86036;-49
2022/05/24 17:12:49;;;;;;;;;;;16.50;1.00;;;;;;10532398;27;84964;-50
2022/05/24 17:17:50;;;;;;;;;;;16.50;1.00;;;;;;10526378;27;85191;-53
2022/05/24 17:22:51;;;;;;;;;;;16.40;1.00;;;;;;10529231;27;85331;-52
2022/05/24 17:27:52;;;;;;;;;;;16.40;1.00;;;;;;10517298;27;85639;-53
2022/05/24 17:32:52;;;;;;;;;;;16.20;1.00;;;;;;10538536;27;84862;-52
2022/05/24 17:37:53;;;;;;;;;;;16.10;1.00;;;;;;10537159;27;84966;-51
2022/05/24 17:42:54;;;;;;;;;;;16.00;1.00;;;;;;10513090;27;85354;-48
2022/05/24 17:47:55;;;;;;;;;;;16.00;1.00;;;;;;10536448;27;84048;-48
2022/05/24 17:52:55;;;;;;;;;;;16.00;99.90;;;;;;10501308;27;86031;-50
2022/05/24 17:57:56;;;;;;;;;;;16.00;99.90;;;;;;10527047;27;85251;-50
2022/05/24 18:02:57;;;;;;;;;;;15.90;99.90;;;;;;10520349;27;84066;-52
2022/05/24 18:07:58;;;;;;;;;;;15.90;99.90;;;;;;10504980;27;84786;-56
2022/05/24 18:12:58;;;;;;;;;;;16.00;99.90;;;;;;10527467;27;84907;-57
2022/05/24 18:17:59;;;;;;;;;;;16.00;99.90;;;;;;10525145;27;84978;-56
2022/05/24 18:23:04;;;;;;;;;;;16.00;99.90;;;;;;10528144;27;84960;-54
2022/05/24 18:33:26;;;;;;;;;;;15.90;1.00;;;;;;10535035;27;86660;-58
2022/05/24 18:38:27;;;;;;;;;;;15.80;1.00;;;;;;10538873;27;84400;-57
2022/05/24 18:43:27;;;;;;;;;;;15.70;1.00;;;;;;10539055;27;84571;-56
2022/05/24 18:48:28;;;;;;;;;;;15.70;1.00;;;;;;10519569;27;85860;-56
2022/05/24 18:53:28;;;;;;;;;;;15.70;1.00;;;;;;10537723;27;84225;-54
2022/05/24 18:58:29;;;;;;;;;;;15.70;1.00;;;;;;10518100;27;87108;-54
2022/05/24 19:03:29;;;;;;;;;;;15.60;1.00;;;;;;10533503;27;84382;-53
2022/05/24 19:08:31;;;;;;;;;;;15.60;1.00;;;;;;10534185;27;85054;-56
2022/05/24 19:13:31;;;;;;;;;;;15.40;1.00;;;;;;10529373;27;84774;-50
2022/05/24 19:18:32;;;;;;;;;;;15.40;1.00;;;;;;10532773;27;84123;-49
2022/05/24 19:23:32;;;;;;;;;;;15.50;1.00;;;;;;10533019;27;84013;-54
2022/05/24 19:28:33;;;;;;;;;;;15.50;1.00;;;;;;10515223;27;84101;-52
2022/05/24 19:33:33;;;;;;;;;;;15.50;1.00;;;;;;10531804;27;84124;-58
2022/05/24 19:41:40;;;;;;;;;;;15.30;1.00;;;;;;10532209;27;84490;-56
2022/05/24 19:43:54;;;;;;;;;;;15.30;1.00;;;;;;10530913;27;84664;-57
2022/05/24 19:48:57;;;;;;;;;;;15.20;1.00;;;;;;10531008;27;84928;-53
2022/05/24 19:53:57;;;;;;;;;;;15.00;1.00;;;;;;10514453;27;85255;-54
2022/05/24 19:58:58;;;;;;;;;;;14.90;1.00;;;;;;10533927;27;84229;-51
2022/05/24 20:03:58;;;;;;;;;;;14.80;1.00;;;;;;10528894;27;85749;-53
2022/05/24 20:09:02;;;;;;;;;;;14.80;1.00;;;;;;10515931;27;85268;-56
2022/05/24 20:14:03;;;;;;;;;;;14.70;1.00;;;;;;10494667;27;84805;-58
2022/05/24 20:19:04;;;;;;;;;;;14.60;1.00;;;;;;10533539;27;84214;-52
2022/05/24 20:24:05;;;;;;;;;;;14.50;1.00;;;;;;10514046;27;84243;-56
2022/05/24 20:29:06;;;;;;;;;;;14.40;1.00;;;;;;10501523;27;84245;-56
2022/05/24 20:34:06;;;;;;;;;;;14.50;1.00;;;;;;10534307;27;85401;-57
2022/05/24 20:39:07;;;;;;;;;;;14.40;1.00;;;;;;10506021;27;86046;-54
2022/05/24 20:44:07;;;;;;;;;;;14.40;1.00;;;;;;10525177;27;85196;-50
2022/05/24 20:49:08;;;;;;;;;;;14.40;1.00;;;;;;10525783;27;84459;-55
2022/05/24 20:54:08;;;;;;;;;;;14.40;1.00;;;;;;10540915;27;84228;-54
2022/05/24 20:59:09;;;;;;;;;;;14.20;1.00;;;;;;10504721;27;84782;-53
2022/05/24 21:04:09;;;;;;;;;;;14.20;1.00;;;;;;10540363;27;84150;-48
2022/05/24 21:09:10;;;;;;;;;;;14.00;1.00;;;;;;10539663;27;84269;-49
2022/05/24 21:14:11;;;;;;;;;;;14.00;1.00;;;;;;10539553;27;84237;-51
2022/05/24 21:19:12;;;;;;;;;;;14.00;1.00;;;;;;10540258;27;84837;-53
2022/05/24 21:24:13;;;;;;;;;;;13.80;1.00;;;;;;10540027;27;84842;-56
2022/05/24 21:29:14;;;;;;;;;;;13.80;1.00;;;;;;10521738;27;84088;-52
2022/05/24 21:34:14;;;;;;;;;;;13.70;1.00;;;;;;10520587;27;84863;-53
2022/05/24 21:39:16;;;;;;;;;;;13.60;1.00;;;;;;10540184;27;84067;-53
2022/05/24 21:44:16;;;;;;;;;;;13.50;1.00;;;;;;10521684;27;85215;-50
2022/05/24 21:49:17;;;;;;;;;;;13.50;1.00;;;;;;10496907;27;84868;-51
2022/05/24 21:54:17;;;;;;;;;;;13.40;1.00;;;;;;10513095;27;84877;-55
2022/05/24 21:59:18;;;;;;;;;;;13.40;1.00;;;;;;10539050;27;84239;-51
2022/05/24 22:04:18;;;;;;;;;;;13.30;1.00;;;;;;10522501;27;85007;-49
2022/05/24 22:09:19;;;;;;;;;;;13.20;1.00;;;;;;10496204;27;84134;-50
2022/05/24 22:14:20;;;;;;;;;;;13.20;1.00;;;;;;10512350;27;84816;-51
2022/05/24 22:19:20;;;;;;;;;;;13.20;1.00;;;;;;10538812;27;84534;-50
2022/05/24 22:24:21;;;;;;;;;;;13.10;1.00;;;;;;10521246;27;84150;-53
2022/05/24 22:29:21;;;;;;;;;;;13.10;1.00;;;;;;10495091;27;86473;-53
2022/05/24 22:34:24;;;;;;;;;;;13.00;1.00;;;;;;10511534;27;85170;-51
2022/05/24 22:39:24;;;;;;;;;;;13.00;1.00;;;;;;10537553;27;84092;-53
2022/05/24 22:49:44;;;;;;;;;;;12.90;1.00;;;;;;10494477;27;85184;-51
2022/05/24 22:54:44;;;;;;;;;;;12.90;1.00;;;;;;10513921;27;88236;-51
2022/05/24 22:59:45;;;;;;;;;;;12.80;1.00;;;;;;10536632;27;84884;-56
2022/05/24 23:04:45;;;;;;;;;;;12.90;1.00;;;;;;10520771;27;84188;-53
2022/05/24 23:09:46;;;;;;;;;;;13.00;1.00;;;;;;10503851;22;84789;-53
2022/05/24 23:14:46;;;;;;;;;;;12.90;1.00;;;;;;10450758;28;84150;-55
2022/05/24 23:19:48;;;;;;;;;;;12.80;1.00;;;;;;10477678;27;84887;-52
2022/05/24 23:24:48;;;;;;;;;;;12.90;1.00;;;;;;10473005;27;86392;-51
2022/05/24 23:29:49;;;;;;;;;;;12.80;1.00;;;;;;10450372;28;84062;-55
2022/05/24 23:34:49;;;;;;;;;;;12.80;1.00;;;;;;10467367;27;86095;-49
2022/05/24 23:39:50;;;;;;;;;;;12.70;1.00;;;;;;10449657;27;84887;-54
2022/05/24 23:44:50;;;;;;;;;;;12.70;1.00;;;;;;10488505;27;84490;-50
2022/05/24 23:49:51;;;;;;;;;;;12.60;1.00;;;;;;10491447;27;84233;-54
2022/05/24 23:54:52;;;;;;;;;;;12.60;1.00;;;;;;10470398;27;84093;-53
2022/05/24 23:59:55;;;;;;;;;;;12.50;1.00;;;;;;10449571;28;84048;-50
